sensor_id;sensor_type;location;lat;lon;timestamp;temperature;humidity
12520;DHT22;6325;49.540;8.364;2024-02-26T00:02:01;8.20;99.90
12520;DHT22;6325;49.540;8.364;2024-02-26T00:04:28;8.10;99.90
12520;DHT22;6325;49.540;8.364;2024-02-26T00:06:54;8.30;99.90
12520;DHT22;6325;49.540;8.364;2024-02-26T00:09:21;8.40;99.90
12520;DHT22;6325;49.540;8.364;2024-02-26T00:11:48;8.40;99.90
12520;DHT22;6325;49.540;8.364;2024-02-26T00:14:15;8.50;99.90
12520;DHT22;6325;49.540;8.364;2024-02-26T00:16:43;8.40;99.90
12520;DHT22;6325;49.540;8.364;2024-02-26T00:19:10;8.10;99.90
12520;DHT22;6325;49.540;8.364;2024-02-26T00:21:40;8.70;99.90
12520;DHT22;6325;49.540;8.364;2024-02-26T00:24:07;8.10;99.90
12520;DHT22;6325;49.540;8.364;2024-02-26T00:26:33;8.30;99.90
12520;DHT22;6325;49.540;8.364;2024-02-26T00:29:00;7.90;99.90
12520;DHT22;6325;49.540;8.364;2024-02-26T00:31:27;8.40;99.90
12520;DHT22;6325;49.540;8.364;2024-02-26T00:33:55;8.70;99.90
12520;DHT22;6325;49.540;8.364;2024-02-26T00:36:22;7.80;99.90
12520;DHT22;6325;49.540;8.364;2024-02-26T00:38:49;7.70;99.90
12520;DHT22;6325;49.540;8.364;2024-02-26T00:41:17;8.00;99.90
12520;DHT22;6325;49.540;8.364;2024-02-26T00:43:44;7.80;99.90
12520;DHT22;6325;49.540;8.364;2024-02-26T00:46:10;8.20;99.90
12520;DHT22;6325;49.540;8.364;2024-02-26T00:48:37;8.50;99.90
12520;DHT22;6325;49.540;8.364;2024-02-26T00:51:05;8.20;99.90
12520;DHT22;6325;49.540;8.364;2024-02-26T00:53:33;8.80;99.90
12520;DHT22;6325;49.540;8.364;2024-02-26T00:56:00;8.60;99.90
12520;DHT22;6325;49.540;8.364;2024-02-26T00:58:27;8.50;99.90
12520;DHT22;6325;49.540;8.364;2024-02-26T01:00:54;8.20;99.90
12520;DHT22;6325;49.540;8.364;2024-02-26T01:03:21;8.60;99.90
12520;DHT22;6325;49.540;8.364;2024-02-26T01:05:48;8.50;99.90
12520;DHT22;6325;49.540;8.364;2024-02-26T01:08:17;7.90;99.90
12520;DHT22;6325;49.540;8.364;2024-02-26T01:10:44;7.60;99.90
12520;DHT22;6325;49.540;8.364;2024-02-26T01:13:10;7.70;99.90
12520;DHT22;6325;49.540;8.364;2024-02-26T01:15:37;7.90;99.90
12520;DHT22;6325;49.540;8.364;2024-02-26T01:18:05;7.70;99.90
12520;DHT22;6325;49.540;8.364;2024-02-26T01:20:31;7.90;99.90
12520;DHT22;6325;49.540;8.364;2024-02-26T01:22:59;7.90;99.90
12520;DHT22;6325;49.540;8.364;2024-02-26T01:25:28;7.80;99.90
12520;DHT22;6325;49.540;8.364;2024-02-26T01:27:55;8.10;99.90
12520;DHT22;6325;49.540;8.364;2024-02-26T01:30:22;7.50;99.90
12520;DHT22;6325;49.540;8.364;2024-02-26T01:32:49;8.50;99.90
12520;DHT22;6325;49.540;8.364;2024-02-26T01:35:16;8.10;99.90
12520;DHT22;6325;49.540;8.364;2024-02-26T01:37:43;8.50;99.90
12520;DHT22;6325;49.540;8.364;2024-02-26T01:40:11;8.40;99.90
12520;DHT22;6325;49.540;8.364;2024-02-26T01:42:45;8.50;99.90
12520;DHT22;6325;49.540;8.364;2024-02-26T01:45:15;8.30;99.90
12520;DHT22;6325;49.540;8.364;2024-02-26T01:47:48;8.40;99.90
12520;DHT22;6325;49.540;8.364;2024-02-26T01:50:16;8.80;99.90
12520;DHT22;6325;49.540;8.364;2024-02-26T01:52:44;8.30;99.90
12520;DHT22;6325;49.540;8.364;2024-02-26T01:55:12;8.90;99.90
12520;DHT22;6325;49.540;8.364;2024-02-26T01:57:39;8.70;99.90
12520;DHT22;6325;49.540;8.364;2024-02-26T02:00:09;8.90;99.90
12520;DHT22;6325;49.540;8.364;2024-02-26T02:02:37;8.80;99.90
12520;DHT22;6325;49.540;8.364;2024-02-26T02:05:08;8.30;99.90
12520;DHT22;6325;49.540;8.364;2024-02-26T02:07:36;8.40;99.90
12520;DHT22;6325;49.540;8.364;2024-02-26T02:10:04;8.10;99.90
12520;DHT22;6325;49.540;8.364;2024-02-26T02:12:32;8.40;99.90
12520;DHT22;6325;49.540;8.364;2024-02-26T02:14:59;8.40;99.90
12520;DHT22;6325;49.540;8.364;2024-02-26T02:17:28;7.80;99.90
12520;DHT22;6325;49.540;8.364;2024-02-26T02:19:55;7.90;99.90
12520;DHT22;6325;49.540;8.364;2024-02-26T02:22:23;8.40;99.90
12520;DHT22;6325;49.540;8.364;2024-02-26T02:24:51;8.80;99.90
12520;DHT22;6325;49.540;8.364;2024-02-26T02:27:18;8.30;99.90
12520;DHT22;6325;49.540;8.364;2024-02-26T02:29:45;8.30;99.90
12520;DHT22;6325;49.540;8.364;2024-02-26T02:32:13;8.20;99.90
12520;DHT22;6325;49.540;8.364;2024-02-26T02:34:41;8.20;99.90
12520;DHT22;6325;49.540;8.364;2024-02-26T02:37:08;8.30;99.90
12520;DHT22;6325;49.540;8.364;2024-02-26T02:39:36;8.20;99.90
12520;DHT22;6325;49.540;8.364;2024-02-26T02:42:03;8.10;99.90
12520;DHT22;6325;49.540;8.364;2024-02-26T02:44:30;8.00;99.90
12520;DHT22;6325;49.540;8.364;2024-02-26T02:46:57;8.30;99.90
12520;DHT22;6325;49.540;8.364;2024-02-26T02:49:24;7.80;99.90
12520;DHT22;6325;49.540;8.364;2024-02-26T02:51:52;8.30;99.90
12520;DHT22;6325;49.540;8.364;2024-02-26T02:54:19;7.70;99.90
12520;DHT22;6325;49.540;8.364;2024-02-26T02:56:48;8.50;99.90
12520;DHT22;6325;49.540;8.364;2024-02-26T02:59:15;8.10;99.90
12520;DHT22;6325;49.540;8.364;2024-02-26T03:01:42;7.80;99.90
12520;DHT22;6325;49.540;8.364;2024-02-26T03:04:09;7.80;99.90
12520;DHT22;6325;49.540;8.364;2024-02-26T03:06:36;8.50;99.90
12520;DHT22;6325;49.540;8.364;2024-02-26T03:09:03;8.40;99.90
12520;DHT22;6325;49.540;8.364;2024-02-26T03:11:30;7.90;99.90
12520;DHT22;6325;49.540;8.364;2024-02-26T03:13:58;8.00;99.90
12520;DHT22;6325;49.540;8.364;2024-02-26T03:16:25;7.90;99.90
12520;DHT22;6325;49.540;8.364;2024-02-26T03:18:53;7.90;99.90
12520;DHT22;6325;49.540;8.364;2024-02-26T03:21:20;7.50;99.90
12520;DHT22;6325;49.540;8.364;2024-02-26T03:23:47;7.80;99.90
12520;DHT22;6325;49.540;8.364;2024-02-26T03:26:14;7.90;99.90
12520;DHT22;6325;49.540;8.364;2024-02-26T03:28:41;8.00;99.90
12520;DHT22;6325;49.540;8.364;2024-02-26T03:31:10;8.20;99.90
12520;DHT22;6325;49.540;8.364;2024-02-26T03:33:37;8.20;99.90
12520;DHT22;6325;49.540;8.364;2024-02-26T03:36:05;7.90;99.90
12520;DHT22;6325;49.540;8.364;2024-02-26T03:38:35;8.10;99.90
12520;DHT22;6325;49.540;8.364;2024-02-26T03:41:02;8.00;99.90
12520;DHT22;6325;49.540;8.364;2024-02-26T03:43:28;7.90;99.90
12520;DHT22;6325;49.540;8.364;2024-02-26T03:45:55;8.40;99.90
12520;DHT22;6325;49.540;8.364;2024-02-26T03:48:23;8.40;99.90
12520;DHT22;6325;49.540;8.364;2024-02-26T03:50:50;8.10;99.90
12520;DHT22;6325;49.540;8.364;2024-02-26T03:53:16;7.90;99.90
12520;DHT22;6325;49.540;8.364;2024-02-26T03:55:43;8.50;99.90
12520;DHT22;6325;49.540;8.364;2024-02-26T03:58:12;8.10;99.90
12520;DHT22;6325;49.540;8.364;2024-02-26T04:00:39;8.50;99.90
12520;DHT22;6325;49.540;8.364;2024-02-26T04:03:05;8.20;99.90
12520;DHT22;6325;49.540;8.364;2024-02-26T04:05:34;7.90;99.90
12520;DHT22;6325;49.540;8.364;2024-02-26T04:08:00;7.90;99.90
12520;DHT22;6325;49.540;8.364;2024-02-26T04:10:29;8.20;99.90
12520;DHT22;6325;49.540;8.364;2024-02-26T04:12:55;8.00;99.90
12520;DHT22;6325;49.540;8.364;2024-02-26T04:15:22;8.00;99.90
12520;DHT22;6325;49.540;8.364;2024-02-26T04:17:49;8.00;99.90
12520;DHT22;6325;49.540;8.364;2024-02-26T04:20:16;8.00;99.90
12520;DHT22;6325;49.540;8.364;2024-02-26T04:22:44;8.00;99.90
12520;DHT22;6325;49.540;8.364;2024-02-26T04:25:11;8.10;99.90
12520;DHT22;6325;49.540;8.364;2024-02-26T04:27:38;8.50;99.90
12520;DHT22;6325;49.540;8.364;2024-02-26T04:30:06;8.00;99.90
12520;DHT22;6325;49.540;8.364;2024-02-26T04:32:33;7.90;99.90
12520;DHT22;6325;49.540;8.364;2024-02-26T04:35:00;8.20;99.90
12520;DHT22;6325;49.540;8.364;2024-02-26T04:37:27;8.00;99.90
12520;DHT22;6325;49.540;8.364;2024-02-26T04:39:58;8.40;99.90
12520;DHT22;6325;49.540;8.364;2024-02-26T04:42:25;8.60;99.90
12520;DHT22;6325;49.540;8.364;2024-02-26T04:44:52;8.50;99.90
12520;DHT22;6325;49.540;8.364;2024-02-26T04:47:18;8.10;99.90
12520;DHT22;6325;49.540;8.364;2024-02-26T04:49:47;8.00;99.90
12520;DHT22;6325;49.540;8.364;2024-02-26T04:52:14;8.50;99.90
12520;DHT22;6325;49.540;8.364;2024-02-26T04:54:41;8.10;99.90
12520;DHT22;6325;49.540;8.364;2024-02-26T04:57:09;8.00;99.90
12520;DHT22;6325;49.540;8.364;2024-02-26T04:59:36;8.10;99.90
12520;DHT22;6325;49.540;8.364;2024-02-26T05:02:03;7.30;99.90
12520;DHT22;6325;49.540;8.364;2024-02-26T05:04:30;8.20;99.90
12520;DHT22;6325;49.540;8.364;2024-02-26T05:06:57;8.20;99.90
12520;DHT22;6325;49.540;8.364;2024-02-26T05:09:23;7.50;99.90
12520;DHT22;6325;49.540;8.364;2024-02-26T05:11:50;8.40;99.90
12520;DHT22;6325;49.540;8.364;2024-02-26T05:14:18;7.90;99.90
12520;DHT22;6325;49.540;8.364;2024-02-26T05:16:45;8.30;99.90
12520;DHT22;6325;49.540;8.364;2024-02-26T05:19:12;8.40;99.90
12520;DHT22;6325;49.540;8.364;2024-02-26T05:21:39;7.80;99.90
12520;DHT22;6325;49.540;8.364;2024-02-26T05:24:08;8.30;99.90
12520;DHT22;6325;49.540;8.364;2024-02-26T05:26:35;8.30;99.90
12520;DHT22;6325;49.540;8.364;2024-02-26T05:29:01;8.30;99.90
12520;DHT22;6325;49.540;8.364;2024-02-26T05:31:29;8.00;99.90
12520;DHT22;6325;49.540;8.364;2024-02-26T05:33:56;8.00;99.90
12520;DHT22;6325;49.540;8.364;2024-02-26T05:36:23;7.60;99.90
12520;DHT22;6325;49.540;8.364;2024-02-26T05:38:51;8.50;99.90
12520;DHT22;6325;49.540;8.364;2024-02-26T05:41:18;8.50;99.90
12520;DHT22;6325;49.540;8.364;2024-02-26T05:43:48;8.00;99.90
12520;DHT22;6325;49.540;8.364;2024-02-26T05:46:16;8.10;99.90
12520;DHT22;6325;49.540;8.364;2024-02-26T05:48:45;7.90;99.90
12520;DHT22;6325;49.540;8.364;2024-02-26T05:51:12;8.00;99.90
12520;DHT22;6325;49.540;8.364;2024-02-26T05:53:40;8.10;99.90
12520;DHT22;6325;49.540;8.364;2024-02-26T05:56:07;8.10;99.90
12520;DHT22;6325;49.540;8.364;2024-02-26T05:58:34;8.20;99.90
12520;DHT22;6325;49.540;8.364;2024-02-26T06:01:00;8.10;99.90
12520;DHT22;6325;49.540;8.364;2024-02-26T06:03:27;8.00;99.90
12520;DHT22;6325;49.540;8.364;2024-02-26T06:05:55;8.00;99.90
12520;DHT22;6325;49.540;8.364;2024-02-26T06:08:22;8.00;99.90
12520;DHT22;6325;49.540;8.364;2024-02-26T06:10:49;7.90;99.90
12520;DHT22;6325;49.540;8.364;2024-02-26T06:13:15;8.00;99.90
12520;DHT22;6325;49.540;8.364;2024-02-26T06:15:42;7.90;99.90
12520;DHT22;6325;49.540;8.364;2024-02-26T06:18:09;8.20;99.90
12520;DHT22;6325;49.540;8.364;2024-02-26T06:20:36;7.90;99.90
12520;DHT22;6325;49.540;8.364;2024-02-26T06:23:04;8.40;99.90
12520;DHT22;6325;49.540;8.364;2024-02-26T06:25:31;7.90;99.90
12520;DHT22;6325;49.540;8.364;2024-02-26T06:27:57;8.10;99.90
12520;DHT22;6325;49.540;8.364;2024-02-26T06:30:24;7.60;99.90
12520;DHT22;6325;49.540;8.364;2024-02-26T06:32:51;8.00;99.90
12520;DHT22;6325;49.540;8.364;2024-02-26T06:35:18;7.60;99.90
12520;DHT22;6325;49.540;8.364;2024-02-26T06:37:45;8.10;99.90
12520;DHT22;6325;49.540;8.364;2024-02-26T06:40:13;8.20;99.90
12520;DHT22;6325;49.540;8.364;2024-02-26T06:42:40;8.10;99.90
12520;DHT22;6325;49.540;8.364;2024-02-26T06:45:09;8.00;99.90
12520;DHT22;6325;49.540;8.364;2024-02-26T06:47:36;8.10;99.90
12520;DHT22;6325;49.540;8.364;2024-02-26T06:50:03;8.10;99.90
12520;DHT22;6325;49.540;8.364;2024-02-26T06:52:30;7.80;99.90
12520;DHT22;6325;49.540;8.364;2024-02-26T06:54:56;8.30;99.90
12520;DHT22;6325;49.540;8.364;2024-02-26T06:57:25;8.40;99.90
12520;DHT22;6325;49.540;8.364;2024-02-26T06:59:51;8.00;99.90
12520;DHT22;6325;49.540;8.364;2024-02-26T07:02:18;7.90;99.90
12520;DHT22;6325;49.540;8.364;2024-02-26T07:04:45;8.50;99.90
12520;DHT22;6325;49.540;8.364;2024-02-26T07:07:12;8.10;99.90
12520;DHT22;6325;49.540;8.364;2024-02-26T07:09:41;8.10;99.90
12520;DHT22;6325;49.540;8.364;2024-02-26T07:12:08;8.10;99.90
12520;DHT22;6325;49.540;8.364;2024-02-26T07:14:36;8.20;99.90
12520;DHT22;6325;49.540;8.364;2024-02-26T07:17:03;8.00;99.90
12520;DHT22;6325;49.540;8.364;2024-02-26T07:19:30;8.10;99.90
12520;DHT22;6325;49.540;8.364;2024-02-26T07:21:57;8.20;99.90
12520;DHT22;6325;49.540;8.364;2024-02-26T07:24:23;8.40;99.90
12520;DHT22;6325;49.540;8.364;2024-02-26T07:26:50;8.40;99.90
12520;DHT22;6325;49.540;8.364;2024-02-26T07:29:17;8.40;99.90
12520;DHT22;6325;49.540;8.364;2024-02-26T07:31:45;8.20;99.90
12520;DHT22;6325;49.540;8.364;2024-02-26T07:34:12;8.30;99.90
12520;DHT22;6325;49.540;8.364;2024-02-26T07:36:39;7.90;99.90
12520;DHT22;6325;49.540;8.364;2024-02-26T07:39:06;8.20;99.90
12520;DHT22;6325;49.540;8.364;2024-02-26T07:41:33;8.40;99.90
12520;DHT22;6325;49.540;8.364;2024-02-26T07:43:59;8.40;99.90
12520;DHT22;6325;49.540;8.364;2024-02-26T07:46:26;8.40;99.90
12520;DHT22;6325;49.540;8.364;2024-02-26T07:48:54;8.00;99.90
12520;DHT22;6325;49.540;8.364;2024-02-26T07:51:21;8.20;99.90
12520;DHT22;6325;49.540;8.364;2024-02-26T07:53:48;8.50;99.90
12520;DHT22;6325;49.540;8.364;2024-02-26T07:56:14;8.50;99.90
12520;DHT22;6325;49.540;8.364;2024-02-26T07:58:41;8.60;99.90
12520;DHT22;6325;49.540;8.364;2024-02-26T08:01:08;8.50;99.90
12520;DHT22;6325;49.540;8.364;2024-02-26T08:03:37;8.10;99.90
12520;DHT22;6325;49.540;8.364;2024-02-26T08:06:05;8.30;99.90
12520;DHT22;6325;49.540;8.364;2024-02-26T08:08:32;9.00;99.90
12520;DHT22;6325;49.540;8.364;2024-02-26T08:10:59;9.10;99.90
12520;DHT22;6325;49.540;8.364;2024-02-26T08:13:26;8.80;99.90
12520;DHT22;6325;49.540;8.364;2024-02-26T08:15:52;8.80;99.90
12520;DHT22;6325;49.540;8.364;2024-02-26T08:18:20;9.00;99.90
12520;DHT22;6325;49.540;8.364;2024-02-26T08:20:47;8.70;99.90
12520;DHT22;6325;49.540;8.364;2024-02-26T08:23:15;8.30;99.90
12520;DHT22;6325;49.540;8.364;2024-02-26T08:25:42;8.60;99.90
12520;DHT22;6325;49.540;8.364;2024-02-26T08:28:09;9.60;99.90
12520;DHT22;6325;49.540;8.364;2024-02-26T08:30:38;9.00;99.90
12520;DHT22;6325;49.540;8.364;2024-02-26T08:33:05;9.00;99.90
12520;DHT22;6325;49.540;8.364;2024-02-26T08:35:32;9.10;99.90
12520;DHT22;6325;49.540;8.364;2024-02-26T08:37:59;9.20;99.90
12520;DHT22;6325;49.540;8.364;2024-02-26T08:40:27;9.50;99.90
12520;DHT22;6325;49.540;8.364;2024-02-26T08:42:53;8.90;99.90
12520;DHT22;6325;49.540;8.364;2024-02-26T08:45:20;10.00;99.90
12520;DHT22;6325;49.540;8.364;2024-02-26T08:47:47;9.60;99.90
12520;DHT22;6325;49.540;8.364;2024-02-26T08:50:14;10.20;99.90
12520;DHT22;6325;49.540;8.364;2024-02-26T08:52:41;9.20;99.90
12520;DHT22;6325;49.540;8.364;2024-02-26T08:55:08;9.40;99.90
12520;DHT22;6325;49.540;8.364;2024-02-26T08:57:36;9.90;99.90
12520;DHT22;6325;49.540;8.364;2024-02-26T09:00:05;9.20;99.90
12520;DHT22;6325;49.540;8.364;2024-02-26T09:02:32;10.30;99.90
12520;DHT22;6325;49.540;8.364;2024-02-26T09:04:59;9.80;99.90
12520;DHT22;6325;49.540;8.364;2024-02-26T09:07:26;10.40;99.90
12520;DHT22;6325;49.540;8.364;2024-02-26T09:09:52;9.80;99.90
12520;DHT22;6325;49.540;8.364;2024-02-26T09:12:19;9.20;99.90
12520;DHT22;6325;49.540;8.364;2024-02-26T09:14:48;10.00;99.90
12520;DHT22;6325;49.540;8.364;2024-02-26T09:17:14;10.30;99.90
12520;DHT22;6325;49.540;8.364;2024-02-26T09:19:41;9.20;99.90
12520;DHT22;6325;49.540;8.364;2024-02-26T09:22:09;9.90;99.90
12520;DHT22;6325;49.540;8.364;2024-02-26T09:24:36;10.00;99.90
12520;DHT22;6325;49.540;8.364;2024-02-26T09:27:03;10.30;99.90
12520;DHT22;6325;49.540;8.364;2024-02-26T09:29:30;10.10;99.90
12520;DHT22;6325;49.540;8.364;2024-02-26T09:31:58;9.90;99.90
12520;DHT22;6325;49.540;8.364;2024-02-26T09:34:26;10.00;99.90
12520;DHT22;6325;49.540;8.364;2024-02-26T09:36:53;10.10;99.90
12520;DHT22;6325;49.540;8.364;2024-02-26T09:39:19;10.10;99.90
12520;DHT22;6325;49.540;8.364;2024-02-26T09:41:47;10.10;99.90
12520;DHT22;6325;49.540;8.364;2024-02-26T09:44:18;10.20;99.90
12520;DHT22;6325;49.540;8.364;2024-02-26T09:46:45;10.10;99.90
12520;DHT22;6325;49.540;8.364;2024-02-26T09:49:14;10.40;99.90
12520;DHT22;6325;49.540;8.364;2024-02-26T09:51:41;10.50;99.90
12520;DHT22;6325;49.540;8.364;2024-02-26T09:54:10;10.70;99.90
12520;DHT22;6325;49.540;8.364;2024-02-26T09:56:39;10.50;99.90
12520;DHT22;6325;49.540;8.364;2024-02-26T09:59:06;10.00;99.90
12520;DHT22;6325;49.540;8.364;2024-02-26T10:01:35;10.80;99.90
12520;DHT22;6325;49.540;8.364;2024-02-26T10:04:03;10.70;99.90
12520;DHT22;6325;49.540;8.364;2024-02-26T10:06:31;10.40;99.90
12520;DHT22;6325;49.540;8.364;2024-02-26T10:08:58;10.70;99.90
12520;DHT22;6325;49.540;8.364;2024-02-26T10:11:27;10.70;99.90
12520;DHT22;6325;49.540;8.364;2024-02-26T10:13:54;10.40;99.90
12520;DHT22;6325;49.540;8.364;2024-02-26T10:16:21;10.60;99.90
12520;DHT22;6325;49.540;8.364;2024-02-26T10:18:48;10.80;99.90
12520;DHT22;6325;49.540;8.364;2024-02-26T10:21:16;10.80;99.90
12520;DHT22;6325;49.540;8.364;2024-02-26T10:23:45;10.90;99.90
12520;DHT22;6325;49.540;8.364;2024-02-26T10:26:13;11.10;99.90
12520;DHT22;6325;49.540;8.364;2024-02-26T10:28:41;11.00;99.90
12520;DHT22;6325;49.540;8.364;2024-02-26T10:31:10;11.70;99.90
12520;DHT22;6325;49.540;8.364;2024-02-26T10:33:38;10.90;99.90
12520;DHT22;6325;49.540;8.364;2024-02-26T10:36:06;11.40;99.90
12520;DHT22;6325;49.540;8.364;2024-02-26T10:38:34;11.00;99.90
12520;DHT22;6325;49.540;8.364;2024-02-26T10:41:03;11.40;99.90
12520;DHT22;6325;49.540;8.364;2024-02-26T10:43:30;11.00;99.90
12520;DHT22;6325;49.540;8.364;2024-02-26T10:45:56;11.00;99.90
12520;DHT22;6325;49.540;8.364;2024-02-26T10:48:23;11.30;99.90
12520;DHT22;6325;49.540;8.364;2024-02-26T10:50:51;12.00;99.90
12520;DHT22;6325;49.540;8.364;2024-02-26T10:53:20;12.30;99.90
12520;DHT22;6325;49.540;8.364;2024-02-26T10:55:49;12.30;99.90
12520;DHT22;6325;49.540;8.364;2024-02-26T10:58:20;12.00;99.90
12520;DHT22;6325;49.540;8.364;2024-02-26T11:00:49;12.00;99.90
12520;DHT22;6325;49.540;8.364;2024-02-26T11:03:16;12.60;99.90
12520;DHT22;6325;49.540;8.364;2024-02-26T11:05:46;12.40;99.90
12520;DHT22;6325;49.540;8.364;2024-02-26T11:08:13;13.00;99.90
12520;DHT22;6325;49.540;8.364;2024-02-26T11:10:41;12.50;99.90
12520;DHT22;6325;49.540;8.364;2024-02-26T11:13:10;13.40;99.90
12520;DHT22;6325;49.540;8.364;2024-02-26T11:15:40;12.50;99.90
12520;DHT22;6325;49.540;8.364;2024-02-26T11:18:08;12.20;99.90
12520;DHT22;6325;49.540;8.364;2024-02-26T11:20:38;12.40;99.90
12520;DHT22;6325;49.540;8.364;2024-02-26T11:23:07;12.00;99.90
12520;DHT22;6325;49.540;8.364;2024-02-26T11:25:34;12.40;99.90
12520;DHT22;6325;49.540;8.364;2024-02-26T11:28:04;12.60;99.90
12520;DHT22;6325;49.540;8.364;2024-02-26T11:30:34;12.70;99.90
12520;DHT22;6325;49.540;8.364;2024-02-26T11:33:06;13.30;99.90
12520;DHT22;6325;49.540;8.364;2024-02-26T11:35:34;12.70;99.90
12520;DHT22;6325;49.540;8.364;2024-02-26T11:38:03;13.40;99.90
12520;DHT22;6325;49.540;8.364;2024-02-26T11:40:32;12.70;99.90
12520;DHT22;6325;49.540;8.364;2024-02-26T11:42:59;13.00;99.90
12520;DHT22;6325;49.540;8.364;2024-02-26T11:45:48;12.10;99.90
12520;DHT22;6325;49.540;8.364;2024-02-26T11:48:21;13.10;99.90
12520;DHT22;6325;49.540;8.364;2024-02-26T11:50:49;12.90;99.90
12520;DHT22;6325;49.540;8.364;2024-02-26T11:53:21;12.90;99.90
12520;DHT22;6325;49.540;8.364;2024-02-26T11:55:48;12.90;99.90
12520;DHT22;6325;49.540;8.364;2024-02-26T11:58:15;13.00;99.90
12520;DHT22;6325;49.540;8.364;2024-02-26T12:00:42;12.80;99.90
12520;DHT22;6325;49.540;8.364;2024-02-26T12:03:09;13.00;99.90
12520;DHT22;6325;49.540;8.364;2024-02-26T12:05:39;13.20;99.90
12520;DHT22;6325;49.540;8.364;2024-02-26T12:08:08;12.90;99.90
12520;DHT22;6325;49.540;8.364;2024-02-26T12:10:36;12.80;99.90
12520;DHT22;6325;49.540;8.364;2024-02-26T12:13:07;12.90;99.90
12520;DHT22;6325;49.540;8.364;2024-02-26T12:15:36;13.10;99.90
12520;DHT22;6325;49.540;8.364;2024-02-26T12:18:05;13.00;99.90
12520;DHT22;6325;49.540;8.364;2024-02-26T12:20:33;12.60;99.90
12520;DHT22;6325;49.540;8.364;2024-02-26T12:23:02;13.20;99.90
12520;DHT22;6325;49.540;8.364;2024-02-26T12:25:30;13.30;99.90
12520;DHT22;6325;49.540;8.364;2024-02-26T12:27:58;13.10;99.90
12520;DHT22;6325;49.540;8.364;2024-02-26T12:30:26;13.40;99.90
12520;DHT22;6325;49.540;8.364;2024-02-26T12:32:55;14.30;99.90
12520;DHT22;6325;49.540;8.364;2024-02-26T12:35:24;14.50;99.90
12520;DHT22;6325;49.540;8.364;2024-02-26T12:37:52;15.20;99.90
12520;DHT22;6325;49.540;8.364;2024-02-26T12:40:20;15.20;99.90
12520;DHT22;6325;49.540;8.364;2024-02-26T12:42:47;16.50;99.90
12520;DHT22;6325;49.540;8.364;2024-02-26T12:45:14;15.90;99.90
12520;DHT22;6325;49.540;8.364;2024-02-26T12:47:42;16.50;99.90
12520;DHT22;6325;49.540;8.364;2024-02-26T12:50:10;16.00;99.90
12520;DHT22;6325;49.540;8.364;2024-02-26T12:52:39;16.10;99.90
12520;DHT22;6325;49.540;8.364;2024-02-26T12:55:07;15.70;99.90
12520;DHT22;6325;49.540;8.364;2024-02-26T12:57:36;16.20;99.90
12520;DHT22;6325;49.540;8.364;2024-02-26T13:00:05;15.70;99.90
12520;DHT22;6325;49.540;8.364;2024-02-26T13:02:35;15.50;99.90
12520;DHT22;6325;49.540;8.364;2024-02-26T13:05:03;15.20;99.90
12520;DHT22;6325;49.540;8.364;2024-02-26T13:07:30;15.10;99.90
12520;DHT22;6325;49.540;8.364;2024-02-26T13:09:57;15.10;99.90
12520;DHT22;6325;49.540;8.364;2024-02-26T13:12:24;15.00;99.90
12520;DHT22;6325;49.540;8.364;2024-02-26T13:15:00;15.30;99.90
12520;DHT22;6325;49.540;8.364;2024-02-26T13:17:27;14.90;99.90
12520;DHT22;6325;49.540;8.364;2024-02-26T13:19:54;14.80;99.90
12520;DHT22;6325;49.540;8.364;2024-02-26T13:22:21;14.90;99.90
12520;DHT22;6325;49.540;8.364;2024-02-26T13:24:54;14.60;99.90
12520;DHT22;6325;49.540;8.364;2024-02-26T13:27:22;14.40;99.90
12520;DHT22;6325;49.540;8.364;2024-02-26T13:30:03;14.10;99.90
12520;DHT22;6325;49.540;8.364;2024-02-26T13:32:32;14.50;99.90
12520;DHT22;6325;49.540;8.364;2024-02-26T13:35:09;14.70;99.90
12520;DHT22;6325;49.540;8.364;2024-02-26T13:37:37;15.50;99.90
12520;DHT22;6325;49.540;8.364;2024-02-26T13:40:05;15.20;99.90
12520;DHT22;6325;49.540;8.364;2024-02-26T13:42:32;15.20;99.90
12520;DHT22;6325;49.540;8.364;2024-02-26T13:44:59;15.40;99.90
12520;DHT22;6325;49.540;8.364;2024-02-26T13:47:27;15.40;99.90
12520;DHT22;6325;49.540;8.364;2024-02-26T13:49:54;15.40;99.90
12520;DHT22;6325;49.540;8.364;2024-02-26T13:52:22;16.00;99.90
12520;DHT22;6325;49.540;8.364;2024-02-26T13:54:48;16.10;99.90
12520;DHT22;6325;49.540;8.364;2024-02-26T13:57:15;16.30;99.90
12520;DHT22;6325;49.540;8.364;2024-02-26T13:59:42;15.40;99.90
12520;DHT22;6325;49.540;8.364;2024-02-26T14:02:09;15.80;99.90
12520;DHT22;6325;49.540;8.364;2024-02-26T14:04:38;15.50;99.90
12520;DHT22;6325;49.540;8.364;2024-02-26T14:07:05;15.00;99.90
12520;DHT22;6325;49.540;8.364;2024-02-26T14:09:32;15.40;99.90
12520;DHT22;6325;49.540;8.364;2024-02-26T14:11:59;14.80;99.90
12520;DHT22;6325;49.540;8.364;2024-02-26T14:14:27;15.80;99.90
12520;DHT22;6325;49.540;8.364;2024-02-26T14:16:54;15.50;99.90
12520;DHT22;6325;49.540;8.364;2024-02-26T14:19:21;15.40;99.90
12520;DHT22;6325;49.540;8.364;2024-02-26T14:21:49;15.40;99.90
12520;DHT22;6325;49.540;8.364;2024-02-26T14:24:16;15.10;99.90
12520;DHT22;6325;49.540;8.364;2024-02-26T14:26:42;14.90;99.90
12520;DHT22;6325;49.540;8.364;2024-02-26T14:29:09;14.90;99.90
12520;DHT22;6325;49.540;8.364;2024-02-26T14:31:36;15.30;99.90
12520;DHT22;6325;49.540;8.364;2024-02-26T14:34:02;14.30;99.90
12520;DHT22;6325;49.540;8.364;2024-02-26T14:36:29;14.70;99.90
12520;DHT22;6325;49.540;8.364;2024-02-26T14:38:57;14.10;99.90
12520;DHT22;6325;49.540;8.364;2024-02-26T14:41:24;14.50;99.90
12520;DHT22;6325;49.540;8.364;2024-02-26T14:43:51;14.50;99.90
12520;DHT22;6325;49.540;8.364;2024-02-26T14:46:18;14.60;99.90
12520;DHT22;6325;49.540;8.364;2024-02-26T14:48:45;14.20;99.90
12520;DHT22;6325;49.540;8.364;2024-02-26T14:51:12;14.00;99.90
12520;DHT22;6325;49.540;8.364;2024-02-26T14:53:38;14.60;99.90
12520;DHT22;6325;49.540;8.364;2024-02-26T14:56:07;14.40;99.90
12520;DHT22;6325;49.540;8.364;2024-02-26T14:58:35;14.30;99.90
12520;DHT22;6325;49.540;8.364;2024-02-26T15:01:03;14.30;99.90
12520;DHT22;6325;49.540;8.364;2024-02-26T15:03:30;14.10;99.90
12520;DHT22;6325;49.540;8.364;2024-02-26T15:05:56;13.80;99.90
12520;DHT22;6325;49.540;8.364;2024-02-26T15:08:23;14.20;99.90
12520;DHT22;6325;49.540;8.364;2024-02-26T15:10:50;14.10;99.90
12520;DHT22;6325;49.540;8.364;2024-02-26T15:13:18;14.20;99.90
12520;DHT22;6325;49.540;8.364;2024-02-26T15:15:45;14.70;99.90
12520;DHT22;6325;49.540;8.364;2024-02-26T15:18:12;14.50;99.90
12520;DHT22;6325;49.540;8.364;2024-02-26T15:20:41;14.90;99.90
12520;DHT22;6325;49.540;8.364;2024-02-26T15:23:08;15.70;99.90
12520;DHT22;6325;49.540;8.364;2024-02-26T15:25:35;15.50;99.90
12520;DHT22;6325;49.540;8.364;2024-02-26T15:28:02;14.80;99.90
12520;DHT22;6325;49.540;8.364;2024-02-26T15:30:30;15.20;99.90
12520;DHT22;6325;49.540;8.364;2024-02-26T15:32:58;16.60;99.90
12520;DHT22;6325;49.540;8.364;2024-02-26T15:35:25;16.10;99.90
12520;DHT22;6325;49.540;8.364;2024-02-26T15:37:52;15.50;99.90
12520;DHT22;6325;49.540;8.364;2024-02-26T15:40:19;15.40;99.90
12520;DHT22;6325;49.540;8.364;2024-02-26T15:42:47;15.30;99.90
12520;DHT22;6325;49.540;8.364;2024-02-26T15:45:15;15.20;99.90
12520;DHT22;6325;49.540;8.364;2024-02-26T15:47:43;15.40;99.90
12520;DHT22;6325;49.540;8.364;2024-02-26T15:50:10;15.50;99.90
12520;DHT22;6325;49.540;8.364;2024-02-26T15:52:37;14.80;99.90
12520;DHT22;6325;49.540;8.364;2024-02-26T15:55:06;14.80;99.90
12520;DHT22;6325;49.540;8.364;2024-02-26T15:57:33;15.00;99.90